< < Back
Terminal Aerodrome Forecast


Current Version              Previous Versions:   1  2  3  4  5  6  7  8  9  

Terminal Aerodrome Forecast

036
FTUS44 KBMX 310500
TAFMGM
TAF
KMGM 310520Z 3106/0106 01004KT P6SM BKN250
     FM010000 01006KT P6SM OVC150=

Latest METAR

592
SAUS80 KWBC 010500 RRD
MTRMGM
METAR KMGM 010453Z AUTO 36003KT 10SM FEW060 24/19 A3001 RMK AO2 SLP158
T02440189


USA.gov is the U.S. government's official web portal to all federal, state and local government web resources and services.